createdAt,value
2019-01-14T00:00:16.906Z,97538.94
2019-01-14T00:02:42.843Z,97531.52
2019-01-14T00:05:09.325Z,97545.04
2019-01-14T00:07:35.316Z,97544.44
2019-01-14T00:10:01.609Z,97550.02
2019-01-14T00:12:27.632Z,97544.63
2019-01-14T00:14:53.974Z,97555.31
2019-01-14T00:17:19.923Z,97556.78
2019-01-14T00:19:46.181Z,97554.01
2019-01-14T00:22:12.205Z,97559.71
2019-01-14T00:24:38.139Z,97557.33
2019-01-14T00:27:04.113Z,97555.72
2019-01-14T00:29:30.134Z,97559.71
2019-01-14T00:31:56.038Z,97559.66
2019-01-14T00:34:23.494Z,97566.52
2019-01-14T00:36:49.478Z,97567.99
2019-01-14T00:39:15.414Z,97562.84
2019-01-14T00:41:41.370Z,97576.59
2019-01-14T00:44:07.392Z,97571.41
2019-01-14T00:46:33.765Z,97581.50
2019-01-14T00:49:00.046Z,97574.28
2019-01-14T00:51:26.112Z,97578.72
2019-01-14T00:53:52.054Z,97578.81
2019-01-14T00:56:18.012Z,97580.62
2019-01-14T00:58:44.299Z,97586.13
2019-01-14T01:01:10.309Z,97591.64
2019-01-14T01:03:37.066Z,97595.11
2019-01-14T01:06:03.635Z,97589.58
2019-01-14T01:08:29.832Z,97603.80
2019-01-14T01:10:55.777Z,97598.34
2019-01-14T01:13:21.728Z,97603.61
2019-01-14T01:15:47.685Z,97611.41
2019-01-14T01:18:14.203Z,97615.20
2019-01-14T01:20:40.319Z,97622.42
2019-01-14T01:23:06.258Z,97629.87
2019-01-14T01:25:32.279Z,97625.40
2019-01-14T01:27:58.347Z,97640.08
2019-01-14T01:30:24.893Z,97653.75
2019-01-14T01:32:50.891Z,97661.11
2019-01-14T01:35:16.933Z,97677.41
2019-01-14T01:37:42.882Z,97689.91
2019-01-14T01:40:17.580Z,97691.18
2019-01-14T01:42:45.127Z,97697.52
2019-01-14T01:45:11.869Z,97697.31
2019-01-14T01:47:37.879Z,97703.05
2019-01-14T01:50:09.035Z,97715.55
2019-01-14T01:52:34.974Z,97709.95
2019-01-14T01:55:02.453Z,97719.02
2019-01-14T01:57:28.394Z,97727.95
2019-01-14T01:59:54.342Z,97727.27
2019-01-14T02:02:21.196Z,97733.68
2019-01-14T02:04:47.253Z,97735.89
2019-01-14T02:07:13.205Z,97748.14
2019-01-14T02:09:39.236Z,97742.63
2019-01-14T02:12:05.375Z,97742.63
2019-01-14T02:14:31.516Z,97743.53
2019-01-14T02:16:57.706Z,97751.34
2019-01-14T02:19:23.967Z,97750.53
2019-01-14T02:21:50.412Z,97753.18
2019-01-14T02:24:16.393Z,97761.66
2019-01-14T02:26:42.402Z,97764.86
2019-01-14T02:29:08.408Z,97774.50
2019-01-14T02:31:34.406Z,97784.02
2019-01-14T02:34:00.371Z,97798.87
2019-01-14T02:36:26.322Z,97796.59
2019-01-14T02:38:52.905Z,97800.61
2019-01-14T02:41:18.856Z,97798.89
2019-01-14T02:43:45.096Z,97804.52
2019-01-14T02:46:13.398Z,97808.84
2019-01-14T02:48:41.291Z,97821.45
2019-01-14T02:51:07.256Z,97825.45
2019-01-14T02:53:33.341Z,97823.72
2019-01-14T02:55:59.291Z,97847.20
2019-01-14T02:58:26.320Z,97855.30
2019-01-14T03:00:52.304Z,97858.82
2019-01-14T03:03:18.736Z,97859.27
2019-01-14T03:05:46.598Z,97859.14
2019-01-14T03:08:13.358Z,97866.91
2019-01-14T03:10:39.302Z,97868.48
2019-01-14T03:13:05.250Z,97875.13
2019-01-14T03:15:32.367Z,97868.70
2019-01-14T03:17:58.305Z,97871.67
2019-01-14T03:20:24.258Z,97871.31
2019-01-14T03:22:50.439Z,97878.31
2019-01-14T03:25:16.881Z,97891.23
2019-01-14T03:27:43.129Z,97897.29
2019-01-14T03:30:11.712Z,97894.99
2019-01-14T03:32:37.870Z,97910.76
2019-01-14T03:35:05.523Z,97924.36
2019-01-14T03:37:31.933Z,97923.19
2019-01-14T03:39:58.076Z,97941.77
2019-01-14T03:42:25.919Z,97948.48
2019-01-14T03:44:52.024Z,97962.83
2019-01-14T03:47:20.362Z,97971.55
2019-01-14T03:49:47.031Z,97984.68
2019-01-14T03:52:13.014Z,97989.03
2019-01-14T03:54:40.888Z,98008.14
2019-01-14T03:57:07.085Z,98017.30
2019-01-14T03:59:33.429Z,98022.56
2019-01-14T04:01:59.576Z,98024.47
2019-01-14T04:04:27.495Z,98042.17
2019-01-14T04:06:53.522Z,98063.11
2019-01-14T04:09:20.207Z,98064.59
2019-01-14T04:11:46.575Z,98063.08
2019-01-14T04:14:12.521Z,98089.84
2019-01-14T04:16:38.497Z,98086.28
2019-01-14T04:19:04.514Z,98088.80
2019-01-14T04:21:30.557Z,98091.25
2019-01-14T04:23:58.430Z,98082.30
2019-01-14T04:26:24.463Z,98109.28
2019-01-14T04:28:50.752Z,98108.10
2019-01-14T04:31:16.705Z,98108.66
2019-01-14T04:33:42.698Z,98108.73
2019-01-14T04:36:08.851Z,98109.10
2019-01-14T04:38:35.617Z,98119.14
2019-01-14T04:41:02.566Z,98135.81
2019-01-14T04:43:28.627Z,98138.07
2019-01-14T04:45:54.973Z,98138.52
2019-01-14T04:48:20.958Z,98153.47
2019-01-14T04:50:47.899Z,98144.23
2019-01-14T04:53:13.849Z,98150.62
2019-01-14T04:55:41.039Z,98155.53
2019-01-14T04:58:06.980Z,98160.99
2019-01-14T05:00:34.427Z,98176.23
2019-01-14T05:03:00.451Z,98166.56
2019-01-14T05:05:27.352Z,98173.09
2019-01-14T05:07:53.286Z,98169.33
2019-01-14T05:10:20.483Z,98168.70
2019-01-14T05:12:46.911Z,98176.05
2019-01-14T05:15:13.169Z,98188.59
2019-01-14T05:17:39.634Z,98182.42
2019-01-14T05:20:09.447Z,98178.56
2019-01-14T05:22:35.511Z,98182.64
2019-01-14T05:25:01.922Z,98202.22
2019-01-14T05:27:29.176Z,98207.83
2019-01-14T05:29:55.123Z,98213.94
2019-01-14T05:32:21.141Z,98205.30
2019-01-14T05:34:47.093Z,98225.28
2019-01-14T05:37:13.141Z,98232.80
2019-01-14T05:39:41.040Z,98236.73
2019-01-14T05:42:06.978Z,98245.38
2019-01-14T05:44:33.143Z,98247.81
2019-01-14T05:46:59.263Z,98252.14
2019-01-14T05:49:25.208Z,98249.70
2019-01-14T05:51:51.175Z,98251.77
2019-01-14T05:54:19.108Z,98273.55
2019-01-14T05:56:45.551Z,98262.37
2019-01-14T05:59:11.490Z,98261.73
2019-01-14T06:01:38.034Z,98265.39
2019-01-14T06:04:05.420Z,98275.41
2019-01-14T06:06:31.431Z,98272.53
2019-01-14T06:08:57.478Z,98281.10
2019-01-14T06:11:23.461Z,98290.89
2019-01-14T06:13:49.383Z,98286.89
2019-01-14T06:16:15.372Z,98296.48
2019-01-14T06:18:41.331Z,98322.27
2019-01-14T06:21:07.484Z,98314.09
2019-01-14T06:23:33.464Z,98328.70
2019-01-14T06:25:59.612Z,98344.18
2019-01-14T06:28:25.562Z,98337.27
2019-01-14T06:30:51.932Z,98341.25
2019-01-14T06:33:17.864Z,98320.56
2019-01-14T06:35:44.228Z,98342.77
2019-01-14T06:38:10.409Z,98361.84
2019-01-14T06:40:36.641Z,98362.56
2019-01-14T06:43:03.291Z,98365.88
2019-01-14T06:45:29.279Z,98371.69
2019-01-14T06:47:55.230Z,98366.23
2019-01-14T06:50:21.875Z,98383.27
2019-01-14T06:52:47.981Z,98378.07
2019-01-14T06:55:14.745Z,98391.64
2019-01-14T06:57:41.174Z,98404.23
2019-01-14T07:00:15.415Z,98404.23
2019-01-14T07:02:41.333Z,98407.94
2019-01-14T07:05:08.467Z,98411.25
2019-01-14T07:07:35.389Z,98415.02
2019-01-14T07:10:03.689Z,98433.00
2019-01-14T07:12:29.742Z,98428.21
2019-01-14T07:14:55.751Z,98440.46
2019-01-14T07:17:21.785Z,98434.70
2019-01-14T07:19:48.336Z,98448.30
2019-01-14T07:22:14.329Z,98450.58
2019-01-14T07:24:40.672Z,98453.69
2019-01-14T07:27:06.707Z,98450.73
2019-01-14T07:29:32.754Z,98456.37
2019-01-14T07:31:59.197Z,98453.48
2019-01-14T07:34:25.096Z,98471.09
2019-01-14T07:36:51.408Z,98461.91
2019-01-14T07:39:17.358Z,98467.17
2019-01-14T07:41:43.289Z,98483.30
2019-01-14T07:44:09.263Z,98481.10
2019-01-14T07:46:35.209Z,98480.43
2019-01-14T07:49:01.562Z,98480.92
2019-01-14T07:51:28.208Z,98476.50
2019-01-14T07:53:54.260Z,98477.84
2019-01-14T07:56:20.352Z,98481.16
2019-01-14T07:58:46.760Z,98483.23
2019-01-14T08:01:12.720Z,98488.23
2019-01-14T08:03:38.684Z,98493.58
2019-01-14T08:06:05.587Z,98496.41
2019-01-14T08:08:31.895Z,98501.27
2019-01-14T08:10:57.867Z,98509.50
2019-01-14T08:13:24.347Z,98513.55
2019-01-14T08:15:50.288Z,98511.66
2019-01-14T08:18:16.354Z,98513.48
2019-01-14T08:20:42.766Z,98516.31
2019-01-14T08:23:08.711Z,98520.41
2019-01-14T08:25:34.725Z,98523.15
2019-01-14T08:28:01.261Z,98520.29
2019-01-14T08:30:28.604Z,98536.06
2019-01-14T08:32:54.954Z,98552.42
2019-01-14T08:35:21.163Z,98541.73
2019-01-14T08:37:47.807Z,98542.33
2019-01-14T08:40:15.494Z,98544.38
2019-01-14T08:42:41.508Z,98548.52
2019-01-14T08:45:09.277Z,98561.45
2019-01-14T08:47:35.721Z,98551.21
2019-01-14T08:50:03.370Z,98574.38
2019-01-14T08:52:29.346Z,98564.50
2019-01-14T08:54:55.291Z,98577.09
2019-01-14T08:57:21.275Z,98571.36
2019-01-14T08:59:49.116Z,98581.61
2019-01-14T09:02:15.062Z,98580.20
2019-01-14T09:04:42.976Z,98604.02
2019-01-14T09:07:08.925Z,98598.56
2019-01-14T09:09:35.865Z,98586.91
2019-01-14T09:12:02.276Z,98605.42
2019-01-14T09:14:30.116Z,98603.92
2019-01-14T09:16:56.066Z,98616.97
2019-01-14T09:19:22.184Z,98625.83
2019-01-14T09:21:48.223Z,98610.27
2019-01-14T09:24:14.661Z,98616.51
2019-01-14T09:26:42.522Z,98623.81
2019-01-14T09:29:08.462Z,98617.89
2019-01-14T09:31:34.400Z,98613.14
2019-01-14T09:34:01.923Z,98622.80
2019-01-14T09:36:29.560Z,98627.07
2019-01-14T09:38:55.507Z,98625.31
2019-01-14T09:41:21.509Z,98631.65
2019-01-14T09:43:47.454Z,98624.97
2019-01-14T09:46:13.391Z,98632.28
2019-01-14T09:48:39.511Z,98644.10
2019-01-14T09:51:05.466Z,98640.34
2019-01-14T09:53:31.431Z,98638.64
2019-01-14T09:55:58.307Z,98644.10
2019-01-14T09:58:24.553Z,98651.19
2019-01-14T10:00:50.987Z,98648.52
2019-01-14T10:03:16.971Z,98639.05
2019-01-14T10:05:43.247Z,98656.93
2019-01-14T10:08:09.192Z,98667.97
2019-01-14T10:10:35.281Z,98667.37
2019-01-14T10:13:01.232Z,98657.36
2019-01-14T10:15:28.057Z,98660.34
2019-01-14T10:17:58.779Z,98671.25
2019-01-14T10:20:25.026Z,98695.02
2019-01-14T10:22:51.069Z,98669.56
2019-01-14T10:25:17.063Z,98671.21
2019-01-14T10:27:43.118Z,98660.89
2019-01-14T10:30:19.208Z,98684.81
2019-01-14T10:32:45.263Z,98675.14
2019-01-14T10:35:11.942Z,98690.05
2019-01-14T10:37:38.656Z,98688.51
2019-01-14T10:40:13.922Z,98696.72
2019-01-14T10:42:40.050Z,98690.31
2019-01-14T10:45:09.820Z,98712.80
2019-01-14T10:47:35.771Z,98709.21
2019-01-14T10:50:03.289Z,98714.45
2019-01-14T10:52:29.383Z,98708.48
2019-01-14T10:54:55.463Z,98718.72
2019-01-14T10:57:21.861Z,98734.53
2019-01-14T10:59:49.783Z,98725.53
2019-01-14T11:02:16.244Z,98721.27
2019-01-14T11:04:42.238Z,98725.25
2019-01-14T11:07:08.773Z,98734.48
2019-01-14T11:09:36.298Z,98738.13
2019-01-14T11:12:02.830Z,98753.03
2019-01-14T11:14:28.781Z,98738.25
2019-01-14T11:16:54.825Z,98757.14
2019-01-14T11:19:21.142Z,98750.70
2019-01-14T11:21:47.293Z,98749.92
2019-01-14T11:24:13.244Z,98764.39
2019-01-14T11:26:39.219Z,98759.37
2019-01-14T11:29:07.069Z,98757.20
2019-01-14T11:31:33.022Z,98789.09
2019-01-14T11:33:59.041Z,98775.88
2019-01-14T11:36:25.097Z,98765.62
2019-01-14T11:38:51.658Z,98787.13
2019-01-14T11:41:17.737Z,98783.58
2019-01-14T11:43:43.701Z,98779.96
2019-01-14T11:46:09.867Z,98780.56
2019-01-14T11:48:35.861Z,98772.13
2019-01-14T11:51:02.109Z,98816.14
2019-01-14T11:53:28.127Z,98796.13
2019-01-14T11:55:54.331Z,98788.23
2019-01-14T11:58:20.428Z,98793.79
2019-01-14T12:00:46.940Z,98810.66
2019-01-14T12:03:13.073Z,98801.91
2019-01-14T12:05:39.005Z,98815.86
2019-01-14T12:08:09.964Z,98801.19
2019-01-14T12:10:35.956Z,98820.67
2019-01-14T12:13:02.963Z,98825.81
2019-01-14T12:15:29.011Z,98855.48
2019-01-14T12:17:55.261Z,98818.82
2019-01-14T12:20:21.410Z,98837.17
2019-01-14T12:22:47.557Z,98816.81
2019-01-14T12:25:14.462Z,98828.39
2019-01-14T12:27:40.422Z,98840.11
2019-01-14T12:30:13.191Z,98844.89
2019-01-14T12:32:39.190Z,98844.21
2019-01-14T12:35:05.934Z,98852.08
2019-01-14T12:37:32.020Z,98849.52
2019-01-14T12:39:58.031Z,98850.05
2019-01-14T12:42:24.402Z,98853.62
2019-01-14T12:44:50.718Z,98862.97
2019-01-14T12:47:16.861Z,98871.59
2019-01-14T12:49:43.006Z,98880.18
2019-01-14T12:52:08.945Z,98877.52
2019-01-14T12:54:34.927Z,98884.89
2019-01-14T12:57:01.566Z,98886.83
2019-01-14T12:59:27.606Z,98889.47
2019-01-14T13:01:53.615Z,98888.16
2019-01-14T13:04:19.565Z,98904.52
2019-01-14T13:06:45.612Z,98902.96
2019-01-14T13:09:11.690Z,98915.41
2019-01-14T13:11:37.674Z,98908.41
2019-01-14T13:14:04.687Z,98916.94
2019-01-14T13:16:30.686Z,98921.90
2019-01-14T13:18:56.745Z,98925.95
2019-01-14T13:21:22.696Z,98946.88
2019-01-14T13:23:48.719Z,98936.61
2019-01-14T13:26:14.683Z,98936.61
2019-01-14T13:28:40.824Z,98951.89
2019-01-14T13:31:06.889Z,98962.00
2019-01-14T13:33:33.835Z,98970.44
2019-01-14T13:35:59.789Z,98964.26
2019-01-14T13:38:25.973Z,98968.45
2019-01-14T13:40:51.927Z,98976.84
2019-01-14T13:43:17.985Z,98993.27
2019-01-14T13:45:44.001Z,98993.78
2019-01-14T13:48:09.943Z,98995.52
2019-01-14T13:50:35.911Z,98992.32
2019-01-14T13:53:03.404Z,98987.52
2019-01-14T13:55:29.352Z,98990.33
2019-01-14T13:57:59.771Z,99007.66
2019-01-14T14:00:24.589Z,99008.42
2019-01-14T14:02:51.034Z,99022.50
2019-01-14T14:05:17.200Z,99026.07
2019-01-14T14:07:43.328Z,99023.86
2019-01-14T14:10:12.997Z,99048.52
2019-01-14T14:12:38.943Z,99040.30
2019-01-14T14:15:07.970Z,99046.38
2019-01-14T14:17:33.923Z,99069.11
2019-01-14T14:19:59.873Z,99061.36
2019-01-14T14:22:25.860Z,99058.98
2019-01-14T14:24:52.957Z,99060.78
2019-01-14T14:27:19.871Z,99065.44
2019-01-14T14:29:45.924Z,99068.88
2019-01-14T14:32:11.872Z,99077.25
2019-01-14T14:34:38.121Z,99077.32
2019-01-14T14:37:04.315Z,99087.65
2019-01-14T14:39:30.307Z,99092.61
2019-01-14T14:41:57.145Z,99096.91
2019-01-14T14:44:23.630Z,99090.92
2019-01-14T14:46:49.878Z,99098.31
2019-01-14T14:49:15.824Z,99101.90
2019-01-14T14:51:42.530Z,99105.41
2019-01-14T14:54:08.503Z,99115.17
2019-01-14T14:56:34.438Z,99120.67
2019-01-14T14:59:00.821Z,99115.39
2019-01-14T15:01:26.977Z,99127.19
2019-01-14T15:03:52.948Z,99132.33
2019-01-14T15:06:18.957Z,99138.26
2019-01-14T15:08:44.927Z,99146.27
2019-01-14T15:11:11.113Z,99140.05
2019-01-14T15:13:37.128Z,99157.13
2019-01-14T15:16:04.040Z,99152.66
2019-01-14T15:18:30.292Z,99146.87
2019-01-14T15:20:56.282Z,99154.05
2019-01-14T15:23:22.625Z,99149.97
2019-01-14T15:25:49.381Z,99152.52
2019-01-14T15:28:17.334Z,99157.19
2019-01-14T15:30:43.311Z,99156.00
2019-01-14T15:33:09.299Z,99160.54
2019-01-14T15:35:35.957Z,99165.54
2019-01-14T15:38:02.121Z,99166.43
2019-01-14T15:40:28.096Z,99163.50
2019-01-14T15:42:54.159Z,99164.29
2019-01-14T15:45:22.721Z,99165.18
2019-01-14T15:47:48.666Z,99156.47
2019-01-14T15:50:15.733Z,99166.89
2019-01-14T15:52:41.672Z,99160.71
2019-01-14T15:55:11.233Z,99165.31
2019-01-14T15:57:38.142Z,99171.17
2019-01-14T16:00:07.886Z,99174.10
2019-01-14T16:02:33.842Z,99172.29
2019-01-14T16:05:00.581Z,99176.55
2019-01-14T16:07:26.946Z,99173.38
2019-01-14T16:09:52.899Z,99175.95
2019-01-14T16:12:18.913Z,99179.48
2019-01-14T16:14:44.863Z,99175.63
2019-01-14T16:17:11.384Z,99181.13
2019-01-14T16:19:38.301Z,99173.80
2019-01-14T16:22:04.241Z,99183.63
2019-01-14T16:24:33.096Z,99182.73
2019-01-14T16:27:02.088Z,99171.55
2019-01-14T16:29:28.376Z,99167.90
2019-01-14T16:31:54.318Z,99170.02
2019-01-14T16:34:22.506Z,99167.90
2019-01-14T16:36:48.482Z,99172.64
2019-01-14T16:39:16.236Z,99178.25
2019-01-14T16:41:42.557Z,99181.28
2019-01-14T16:44:09.140Z,99179.33
2019-01-14T16:46:35.091Z,99189.44
2019-01-14T16:49:03.579Z,99182.91
2019-01-14T16:51:32.679Z,99185.58
2019-01-14T16:53:59.228Z,99172.89
2019-01-14T16:56:25.210Z,99188.08
2019-01-14T16:58:51.451Z,99185.77
2019-01-14T17:01:17.461Z,99173.52
2019-01-14T17:03:45.020Z,99186.74
2019-01-14T17:06:11.600Z,99200.80
2019-01-14T17:08:38.545Z,99203.14
2019-01-14T17:11:05.080Z,99209.28
2019-01-14T17:13:31.051Z,99212.41
2019-01-14T17:15:56.994Z,99213.12
2019-01-14T17:18:23.038Z,99208.41
2019-01-14T17:20:49.085Z,99213.70
2019-01-14T17:23:15.137Z,99209.77
2019-01-14T17:25:41.377Z,99217.60
2019-01-14T17:28:08.109Z,99217.92
2019-01-14T17:30:34.079Z,99198.95
2019-01-14T17:33:00.083Z,99210.06
2019-01-14T17:35:26.053Z,99209.50
2019-01-14T17:37:52.223Z,99209.20
2019-01-14T17:40:19.721Z,99207.02
2019-01-14T17:42:45.880Z,99210.19
2019-01-14T17:45:12.438Z,99220.27
2019-01-14T17:47:39.218Z,99225.72
2019-01-14T17:50:08.496Z,99214.05
2019-01-14T17:52:34.756Z,99220.27
2019-01-14T17:55:00.763Z,99226.03
2019-01-14T17:57:27.753Z,99220.96
2019-01-14T17:59:53.726Z,99216.64
2019-01-14T18:02:19.705Z,99222.78
2019-01-14T18:04:45.655Z,99217.20
2019-01-14T18:07:12.203Z,99217.07
2019-01-14T18:09:38.457Z,99222.86
2019-01-14T18:12:04.482Z,99206.03
2019-01-14T18:14:30.465Z,99217.28
2019-01-14T18:16:56.468Z,99219.66
2019-01-14T18:19:22.475Z,99221.73
2019-01-14T18:21:48.626Z,99224.11
2019-01-14T18:24:14.645Z,99225.59
2019-01-14T18:26:40.658Z,99229.69
2019-01-14T18:29:06.658Z,99222.90
2019-01-14T18:31:32.663Z,99243.23
2019-01-14T18:33:58.786Z,99247.31
2019-01-14T18:36:24.911Z,99262.76
2019-01-14T18:38:51.139Z,99242.55
2019-01-14T18:41:17.086Z,99249.64
2019-01-14T18:43:43.147Z,99247.43
2019-01-14T18:46:09.162Z,99256.17
2019-01-14T18:48:35.313Z,99261.55
2019-01-14T18:51:01.353Z,99269.08
2019-01-14T18:53:27.378Z,99286.56
2019-01-14T18:55:53.368Z,99262.23
2019-01-14T18:58:19.554Z,99261.80
2019-01-14T19:00:47.436Z,99266.00
2019-01-14T19:03:15.265Z,99277.20
2019-01-14T19:05:43.124Z,99267.95
2019-01-14T19:08:09.415Z,99266.69
2019-01-14T19:10:36.561Z,99271.72
2019-01-14T19:13:02.573Z,99276.73
2019-01-14T19:15:28.595Z,99296.39
2019-01-14T19:17:54.857Z,99287.98
2019-01-14T19:20:24.567Z,99290.06
2019-01-14T19:22:53.402Z,99304.70
2019-01-14T19:25:19.827Z,99295.01
2019-01-14T19:27:45.890Z,99297.59
2019-01-14T19:30:14.992Z,99298.03
2019-01-14T19:32:40.954Z,99313.48
2019-01-14T19:35:07.112Z,99300.55
2019-01-14T19:37:33.132Z,99313.10
2019-01-14T19:39:59.092Z,99304.70
2019-01-14T19:42:25.458Z,99315.09
2019-01-14T19:44:51.456Z,99308.38
2019-01-14T19:47:17.413Z,99318.38
2019-01-14T19:49:43.622Z,99317.56
2019-01-14T19:52:09.611Z,99304.27
2019-01-14T19:54:35.615Z,99318.77
2019-01-14T19:57:01.534Z,99313.26
2019-01-14T19:59:27.546Z,99340.29
2019-01-14T20:01:54.333Z,99342.72
2019-01-14T20:04:20.309Z,99374.38
2019-01-14T20:06:46.305Z,99362.08
2019-01-14T20:09:12.688Z,99379.91
2019-01-14T20:11:40.192Z,99372.03
2019-01-14T20:14:06.404Z,99370.91
2019-01-14T20:16:32.626Z,99384.02
2019-01-14T20:18:58.656Z,99379.68
2019-01-14T20:21:27.567Z,99380.44
2019-01-14T20:23:54.779Z,99384.88
2019-01-14T20:26:20.789Z,99408.45
2019-01-14T20:28:46.781Z,99395.52
2019-01-14T20:31:12.727Z,99410.19
2019-01-14T20:33:38.682Z,99409.28
2019-01-14T20:36:04.813Z,99415.91
2019-01-14T20:38:32.215Z,99414.87
2019-01-14T20:40:58.343Z,99409.66
2019-01-14T20:43:24.398Z,99418.33
2019-01-14T20:45:50.361Z,99415.73
2019-01-14T20:48:16.300Z,99420.28
2019-01-14T20:50:42.684Z,99424.05
2019-01-14T20:53:13.744Z,99434.87
2019-01-14T20:55:38.522Z,99454.09
2019-01-14T20:58:04.671Z,99433.06
2019-01-14T21:00:30.617Z,99442.16
2019-01-14T21:02:56.584Z,99436.27
2019-01-14T21:05:23.403Z,99449.13
2019-01-14T21:07:49.375Z,99446.23
2019-01-14T21:10:16.014Z,99475.50
2019-01-14T21:12:42.012Z,99447.16
2019-01-14T21:15:12.331Z,99453.00
2019-01-14T21:21:25.985Z,99461.45
2019-01-14T21:27:15.440Z,99449.25
2019-01-14T21:33:29.531Z,99460.69
2019-01-14T21:35:58.443Z,99474.53
2019-01-14T21:38:24.371Z,99499.28
2019-01-14T21:40:50.329Z,99482.27
2019-01-14T21:43:16.450Z,99480.30
2019-01-14T21:45:42.403Z,99499.24
2019-01-14T21:48:08.361Z,99485.95
2019-01-14T21:50:34.482Z,99492.69
2019-01-14T21:53:00.635Z,99497.39
2019-01-14T21:59:14.062Z,99490.96
2019-01-14T22:01:41.968Z,99515.63
2019-01-14T22:04:09.933Z,99490.96
2019-01-14T22:06:37.871Z,99504.87
2019-01-14T22:09:05.798Z,99503.55
2019-01-14T22:11:38.342Z,99508.41
2019-01-14T22:13:59.861Z,99503.39
2019-01-14T22:16:25.845Z,99495.52
2019-01-14T22:18:53.711Z,99500.38
2019-01-14T22:21:21.762Z,99508.42
2019-01-14T22:23:48.066Z,99490.58
2019-01-14T22:26:14.845Z,99505.25
2019-01-14T22:28:40.792Z,99499.91
2019-01-14T22:31:07.119Z,99519.20
2019-01-14T22:33:33.061Z,99509.16
2019-01-14T22:35:59.013Z,99523.40
2019-01-14T22:38:25.045Z,99502.96
2019-01-14T22:40:51.005Z,99523.04
2019-01-14T22:43:17.697Z,99511.04
2019-01-14T22:45:43.885Z,99513.98
2019-01-14T22:48:10.449Z,99514.56
2019-01-14T22:50:37.892Z,99509.23
2019-01-14T22:53:04.376Z,99512.39
2019-01-14T22:55:30.442Z,99508.96
2019-01-14T22:57:58.368Z,99515.88
2019-01-14T23:00:49.825Z,99502.34
2019-01-14T23:03:16.097Z,99509.19
2019-01-14T23:05:43.043Z,99504.06
2019-01-14T23:08:09.019Z,99500.38
2019-01-14T23:10:34.970Z,99508.05
2019-01-14T23:13:01.295Z,99505.61
2019-01-14T23:15:27.317Z,99527.82
2019-01-14T23:17:53.380Z,99510.34
2019-01-14T23:20:19.412Z,99496.20
2019-01-14T23:22:45.551Z,99510.09
2019-01-14T23:25:11.779Z,99504.25
2019-01-14T23:27:39.859Z,99514.56
2019-01-14T23:30:08.848Z,99511.20
2019-01-14T23:32:34.799Z,99518.58
2019-01-14T23:35:00.859Z,99506.33
2019-01-14T23:37:26.860Z,99520.44
2019-01-14T23:39:53.305Z,99506.14
2019-01-14T23:42:19.248Z,99508.72
2019-01-14T23:44:45.244Z,99502.62
2019-01-14T23:47:11.206Z,99501.05
2019-01-14T23:49:39.060Z,99509.07
2019-01-14T23:52:05.035Z,99493.67
2019-01-14T23:54:36.924Z,99500.91
2019-01-14T23:56:58.922Z,99511.05
2019-01-14T23:59:24.936Z,99496.90
